AirNav   ATP
 
 1645 users online  

58T Heritage Creek Airstrip
Decatur, Texas, USA

GOING TO DECATUR?


FAA INFORMATION EFFECTIVE 19 JULY 2018

Location

FAA Identifier: 58T
Lat/Long: 33-09-57.7000N / 097-28-47.6000W
33-09.961667N / 097-28.793333W
33.1660278 / -97.4798889
(estimated)
Elevation: 883 ft. / 269 m (estimated)
Variation: 07E (1985)
From city: 9 miles SE of DECATUR, TX
Time zone: UTC -5 (UTC -6 during Standard Time)
Zip code: 76078

Airport Operations

Airport use: Open to the public
Activation date: 11/1990
Control tower: no
ARTCC: FORT WORTH CENTER
FSS: FORT WORTH FLIGHT SERVICE STATION
NOTAMs facility: FTW (NOTAM-D service available)
Attendance: UNATNDD
Pattern altitude: 1683 ft. MSL
Wind indicator: lighted
Segmented circle: no
Lights: ACTVT LIRL RY 13/31 - CTAF.

Airport Communications

CTAF: 122.9
WX AWOS-3 at LUD (7 nm NW): 118.225 (940-627-2365)
WX ASOS at AFW (13 nm SE): PHONE 817-491-6188
WX ASOS at DTO (14 nm E): 119.325 (940-383-8457)
WX AWOS-3 at XBP (18 nm W): 119.225 (940-683-8027)

Nearby radio navigation aids

VOR radial/distance  VOR name  Freq  Var
FUZr312/22.4RANGER VORTAC115.7006E
UKWr136/28.0BOWIE VORTAC117.1506E
TTTr303/28.4MAVERICK VOR/DME113.1006E
CVEr294/33.4COWBOY VOR/DME116.2006E
MQPr036/37.1MILLSAP VORTAC117.7009E

 
NDB name  Hdg/Dist  Freq  Var  ID
GRINDSTONE MOUNTAIN147/30.235604EGMZ --. -- --..

Airport Services

Airframe service: MAJOR
Powerplant service: MAJOR

Runway Information

Runway 13/31

Dimensions: 3000 x 60 ft. / 914 x 18 m
Surface: turf, in good condition
Runway edge lights: low intensity
RUNWAY 13  RUNWAY 31
Latitude: 33-10.125432N33-09.796962N
Longitude: 097-29.012758W097-28.572758W
Elevation: 867.0 ft.842.0 ft.
Gradient: 0.8% UP
Traffic pattern: leftright
RIGHT TRAFFIC FOR FIXED WING ACFT ONLY; REMAIN EAST OF THE RY.
Runway heading: 125 magnetic, 132 true305 magnetic, 312 true
Obstructions: 5 ft. fence, 168 ft. from runway, 40 ft. right of centerline, 33:1 slope to clear30 ft. tree, 740 ft. from runway, 70 ft. right of centerline, 24:1 slope to clear

Airport Ownership and Management from official FAA records

Ownership: Privately-owned
Owner: HERITAGE CREEK PILOTS ASSOC
894 HERITAGE CREEK DRIVE
RHOME, TX 76078
Phone 940-627-5938
Manager: BRYAN FAIR, PRESIDENT
186 RED BARON DR
RHOME, TX 76078
Phone (817) 988-9745

Airport Operational Statistics

Aircraft based on the field: 33
Single engine airplanes: 26
Helicopters: 2
Gliders airplanes: 2
Ultralights: 3
    
Aircraft operations: avg 42/week *
98% local general aviation
2% transient general aviation
* for 12-month period ending 31 December 2015

Additional Remarks

BIRD ACTIVITY SOUTH OF ARPT.
ALL ACFT MONITOR CTAF DUE TO THE CLOSE PROXIMITY TO RHOME MEADOWS ARPT.
PARACHUTE ACTIVITY INVOF ARPT.
RCO CTL MODEL ACFT OPS ON ARPT.
DEER & BIRDS ON AND INVOF ARPT.
FOR CD CTC REGIONAL APCH AT 972-615-2799.
FOR CD CTC REGIONAL APCH AT 972-615-2799.

Instrument Procedures

There are no published instrument procedures at 58T.

Some nearby airports with instrument procedures:

KLUD - Decatur Municipal Airport (7 nm NW)
4T2 - Kenneth Copeland Airport (11 nm S)
KAFW - Fort Worth Alliance Airport (13 nm SE)
KDTO - Denton Enterprise Airport (14 nm E)
KXBP - Bridgeport Municipal Airport (18 nm W)
 
Loc | Ops | Rwys | IFR | FBO | Links
Com | Nav | Svcs | Stats | Notes


 
Area around 58T (Heritage Creek Airstrip)
 
Road maps at: MapQuest Bing Google
 
Aerial photo
WARNING: Photo may not be current or correct
Aerial photo of 58T (Heritage Creek Airstrip)
Photo by Chris Hettenbach

Do you have a better or more recent aerial photo of Heritage Creek Airstrip that you would like to share? If so, please send us your photo.

 
Sectional chart

 
Airport distance calculator
Flying to Heritage Creek Airstrip? Find the distance to fly.

From to 58T

Sunrise and sunset
Times for 14-Aug-2018
 Local
(UTC-5)
 Zulu
(UTC)
Morning civil twilight06:2711:27
Sunrise06:5311:53
Sunset20:1601:16
Evening civil twilight20:4201:42

Current date and time
Zulu (UTC)  14-Aug-2018 16:15:32
Local (UTC-5)  14-Aug-2018 11:15:32
 
METAR
KLUD 
7nm NW 
118.22 940-927-2365
141555Z AUTO 11006KT 5SM BR BKN055 20/19 A2999 RMK AO2 P0006 T02040190
KDTO 
14nm E 
141604Z 05003KT 5SM TS BR FEW070 BKN095 BKN110 22/19 A2999 RMK AO2 LTG DSNT N AND W RAE00 TSB1558 P0000 T02220194
KAFW 
15nm SE 
141553Z 10004KT 8SM OVC090 24/23 A2999 RMK AO2 WSHFT 1448 LTG DSNT N RAE17 SLP143 P0002 T02440228
KXBP 
18nm W 
141415Z AUTO 17009KT 10SM TS SCT022 BKN060 OVC090 22/20 A2998 RMK AO2 P0001 T02150195
TAF
KAFW 
15nm SE 
141337Z 1414/1512 18015KT 5SM SHRA SCT050 BKN070 TEMPO 1414/1416 3SM SHRA BKN040 FM141600 18014KT P6SM BKN120
NOTAMs
Click for the latest NOTAMs
NOTAMs are issued by the DoD/FAA and will open in a separate window not controlled by AirNav.

 

 
 

Would you like to see your business listed on this page?

 If your business provides an interesting product or service to pilots, flight crews, aircraft, or users of the Heritage Creek Airstrip, you should consider listing it here.  To start the listing process, click on the button below
 
Add a business
 

Other Pages about Heritage Creek Airstrip

Update a link
 
Copyright © AirNav, LLC. All rights reserved. Privacy Policy  Contact